createdAt,value
2018-03-30T00:00:43.419Z,89.00
2018-03-30T00:01:43.332Z,89.57
2018-03-30T00:02:43.300Z,88.81
2018-03-30T00:03:43.346Z,89.86
2018-03-30T00:04:43.268Z,88.71
2018-03-30T00:05:43.203Z,89.19
2018-03-30T00:06:43.173Z,89.28
2018-03-30T00:07:43.141Z,89.57
2018-03-30T00:08:43.115Z,88.90
2018-03-30T00:09:43.086Z,90.05
2018-03-30T00:10:43.051Z,90.05
2018-03-30T00:11:43.025Z,88.34
2018-03-30T00:12:42.995Z,89.80
2018-03-30T00:13:42.962Z,89.71
2018-03-30T00:14:42.930Z,89.90
2018-03-30T00:15:42.902Z,91.33
2018-03-30T00:16:42.867Z,90.75
2018-03-30T00:17:42.967Z,90.75
2018-03-30T00:18:42.808Z,90.09
2018-03-30T00:19:42.776Z,90.85
2018-03-30T00:20:42.748Z,90.94
2018-03-30T00:21:42.713Z,91.71
2018-03-30T00:22:42.678Z,90.56
2018-03-30T00:23:42.657Z,90.47
2018-03-30T00:24:42.624Z,90.47
2018-03-30T00:25:42.591Z,90.66
2018-03-30T00:26:42.558Z,90.47
2018-03-30T00:27:42.529Z,90.66
2018-03-30T00:28:42.496Z,90.56
2018-03-30T00:29:42.517Z,90.94
2018-03-30T00:30:42.447Z,90.94
2018-03-30T00:31:42.415Z,89.90
2018-03-30T00:32:42.379Z,88.47
2018-03-30T00:33:42.349Z,90.19
2018-03-30T00:34:42.328Z,90.56
2018-03-30T00:35:42.294Z,90.09
2018-03-30T00:36:42.265Z,90.47
2018-03-30T00:37:42.223Z,90.85
2018-03-30T00:38:42.194Z,90.28
2018-03-30T00:39:42.189Z,90.37
2018-03-30T00:40:42.150Z,90.47
2018-03-30T00:41:42.101Z,90.66
2018-03-30T00:42:42.071Z,90.47
2018-03-30T00:43:42.035Z,91.42
2018-03-30T00:44:42.055Z,90.66
2018-03-30T00:45:41.986Z,90.56
2018-03-30T00:46:41.952Z,90.75
2018-03-30T00:47:41.927Z,90.75
2018-03-30T00:48:41.888Z,90.00
2018-03-30T00:49:41.859Z,90.85
2018-03-30T00:50:41.834Z,90.56
2018-03-30T00:51:41.798Z,90.75
2018-03-30T00:52:41.774Z,90.85
2018-03-30T00:53:41.731Z,91.71
2018-03-30T00:54:41.699Z,90.85
2018-03-30T00:55:41.672Z,91.04
2018-03-30T00:56:41.644Z,93.04
2018-03-30T00:57:41.607Z,91.52
2018-03-30T00:58:41.577Z,91.99
2018-03-30T00:59:41.553Z,90.94
2018-03-30T01:00:41.588Z,91.85
2018-03-30T01:01:41.498Z,91.85
2018-03-30T01:02:41.464Z,91.85
2018-03-30T01:03:41.434Z,91.47
2018-03-30T01:04:41.407Z,91.66
2018-03-30T01:05:41.365Z,91.66
2018-03-30T01:06:41.333Z,91.85
2018-03-30T01:07:41.315Z,91.75
2018-03-30T01:08:41.277Z,92.22
2018-03-30T01:09:41.250Z,92.61
2018-03-30T01:10:41.220Z,91.66
2018-03-30T01:11:41.192Z,93.08
2018-03-30T01:12:41.166Z,92.03
2018-03-30T01:13:41.129Z,92.32
2018-03-30T01:14:41.095Z,92.22
2018-03-30T01:15:41.074Z,91.85
2018-03-30T01:16:41.036Z,92.41
2018-03-30T01:17:41.006Z,92.61
2018-03-30T01:18:40.973Z,91.56
2018-03-30T01:19:40.941Z,92.61
2018-03-30T01:20:40.910Z,92.22
2018-03-30T01:21:40.882Z,91.75
2018-03-30T01:22:40.861Z,91.85
2018-03-30T01:23:40.820Z,91.66
2018-03-30T01:24:40.792Z,93.08
2018-03-30T01:25:40.764Z,92.61
2018-03-30T01:26:40.738Z,92.22
2018-03-30T01:27:40.706Z,92.03
2018-03-30T01:28:40.676Z,93.08
2018-03-30T01:29:40.644Z,93.08
2018-03-30T01:30:40.612Z,92.89
2018-03-30T01:31:40.584Z,92.22
2018-03-30T01:32:40.555Z,91.85
2018-03-30T01:33:40.514Z,92.41
2018-03-30T01:34:40.484Z,92.89
2018-03-30T01:35:40.574Z,92.80
2018-03-30T01:36:40.428Z,92.61
2018-03-30T01:37:40.397Z,91.66
2018-03-30T01:38:40.366Z,92.99
2018-03-30T01:39:40.333Z,92.32
2018-03-30T01:40:40.311Z,93.46
2018-03-30T01:41:40.282Z,92.61
2018-03-30T01:42:40.256Z,92.22
2018-03-30T01:43:40.215Z,92.03
2018-03-30T01:44:40.193Z,93.08
2018-03-30T01:45:40.156Z,92.99
2018-03-30T01:46:40.129Z,93.18
2018-03-30T01:47:40.094Z,92.22
2018-03-30T01:48:40.072Z,93.94
2018-03-30T01:49:40.033Z,92.61
2018-03-30T01:50:39.999Z,92.32
2018-03-30T01:51:39.972Z,93.18
2018-03-30T01:52:39.947Z,93.08
2018-03-30T01:53:39.908Z,93.37
2018-03-30T01:54:39.883Z,92.13
2018-03-30T01:55:39.847Z,92.32
2018-03-30T01:56:39.821Z,92.32
2018-03-30T01:57:39.800Z,92.41
2018-03-30T01:58:39.760Z,91.75
2018-03-30T01:59:39.733Z,92.13
2018-03-30T02:00:39.701Z,92.03
2018-03-30T02:01:39.675Z,92.32
2018-03-30T02:02:39.643Z,93.18
2018-03-30T02:03:39.667Z,92.32
2018-03-30T02:04:39.603Z,92.61
2018-03-30T02:05:39.555Z,92.41
2018-03-30T02:06:39.528Z,92.13
2018-03-30T02:07:39.489Z,92.13
2018-03-30T02:08:39.465Z,92.32
2018-03-30T02:09:39.430Z,92.61
2018-03-30T02:10:39.399Z,93.18
2018-03-30T02:11:39.444Z,92.03
2018-03-30T02:12:39.344Z,91.66
2018-03-30T02:13:39.308Z,92.61
2018-03-30T02:14:39.276Z,92.22
2018-03-30T02:15:39.245Z,91.37
2018-03-30T02:16:39.218Z,92.03
2018-03-30T02:17:39.187Z,92.41
2018-03-30T02:18:39.157Z,92.13
2018-03-30T02:19:39.122Z,92.03
2018-03-30T02:20:39.102Z,92.32
2018-03-30T02:21:39.069Z,92.32
2018-03-30T02:22:39.041Z,91.66
2018-03-30T02:23:39.009Z,93.08
2018-03-30T02:24:38.975Z,91.75
2018-03-30T02:25:38.954Z,92.70
2018-03-30T02:26:38.926Z,91.85
2018-03-30T02:27:38.897Z,92.03
2018-03-30T02:28:38.860Z,91.66
2018-03-30T02:29:38.820Z,92.41
2018-03-30T02:30:38.790Z,92.13
2018-03-30T02:31:38.760Z,92.41
2018-03-30T02:32:38.732Z,92.32
2018-03-30T02:33:38.754Z,92.22
2018-03-30T02:34:38.665Z,92.99
2018-03-30T02:35:38.643Z,92.41
2018-03-30T02:36:38.674Z,92.32
2018-03-30T02:37:38.604Z,92.03
2018-03-30T02:38:38.551Z,92.51
2018-03-30T02:39:38.519Z,92.89
2018-03-30T02:40:38.493Z,92.22
2018-03-30T02:41:38.505Z,92.32
2018-03-30T02:42:38.430Z,92.61
2018-03-30T02:43:38.402Z,92.80
2018-03-30T02:44:38.441Z,92.32
2018-03-30T02:45:38.332Z,92.22
2018-03-30T02:46:38.318Z,92.70
2018-03-30T02:47:38.337Z,92.32
2018-03-30T02:48:38.252Z,92.22
2018-03-30T02:49:38.229Z,92.03
2018-03-30T02:50:38.183Z,92.03
2018-03-30T02:51:38.157Z,92.51
2018-03-30T02:52:38.165Z,91.75
2018-03-30T02:53:38.100Z,92.03
2018-03-30T02:54:38.068Z,92.22
2018-03-30T02:55:38.069Z,92.61
2018-03-30T02:56:38.003Z,92.03
2018-03-30T02:57:38.048Z,92.03
2018-03-30T02:58:37.948Z,92.61
2018-03-30T02:59:37.919Z,90.42
2018-03-30T03:00:37.888Z,92.41
2018-03-30T03:01:37.848Z,92.89
2018-03-30T03:02:37.816Z,91.94
2018-03-30T03:03:37.788Z,92.03
2018-03-30T03:04:37.759Z,91.85
2018-03-30T03:05:37.731Z,92.41
2018-03-30T03:06:37.699Z,92.41
2018-03-30T03:07:37.677Z,91.66
2018-03-30T03:08:37.645Z,92.32
2018-03-30T03:09:37.616Z,92.32
2018-03-30T03:10:37.599Z,91.47
2018-03-30T03:11:37.555Z,91.85
2018-03-30T03:12:37.523Z,92.22
2018-03-30T03:13:37.486Z,92.41
2018-03-30T03:14:37.470Z,92.32
2018-03-30T03:15:37.424Z,91.75
2018-03-30T03:16:37.399Z,92.22
2018-03-30T03:17:37.429Z,91.85
2018-03-30T03:18:37.335Z,92.22
2018-03-30T03:19:37.304Z,92.22
2018-03-30T03:20:37.276Z,92.61
2018-03-30T03:21:37.244Z,93.18
2018-03-30T03:22:37.256Z,92.89
2018-03-30T03:23:37.184Z,92.13
2018-03-30T03:24:37.156Z,92.80
2018-03-30T03:25:37.123Z,93.18
2018-03-30T03:26:37.087Z,92.80
2018-03-30T03:27:37.061Z,92.99
2018-03-30T03:28:37.032Z,92.61
2018-03-30T03:29:37.002Z,92.99
2018-03-30T03:30:36.970Z,93.18
2018-03-30T03:31:36.937Z,92.03
2018-03-30T03:32:36.908Z,92.99
2018-03-30T03:33:36.886Z,92.89
2018-03-30T03:34:36.850Z,92.51
2018-03-30T03:35:36.820Z,92.80
2018-03-30T03:36:36.790Z,92.99
2018-03-30T03:37:36.759Z,92.61
2018-03-30T03:38:36.737Z,93.08
2018-03-30T03:39:36.706Z,92.89
2018-03-30T03:40:36.674Z,92.32
2018-03-30T03:41:36.636Z,92.80
2018-03-30T03:42:36.605Z,93.37
2018-03-30T03:43:36.575Z,92.41
2018-03-30T03:44:36.544Z,92.03
2018-03-30T03:45:36.569Z,92.61
2018-03-30T03:46:36.480Z,93.18
2018-03-30T03:47:36.456Z,93.18
2018-03-30T03:48:36.421Z,92.22
2018-03-30T03:49:36.395Z,92.61
2018-03-30T03:50:36.370Z,92.03
2018-03-30T03:51:36.343Z,92.61
2018-03-30T03:52:36.308Z,92.41
2018-03-30T03:53:36.274Z,92.89
2018-03-30T03:54:36.242Z,92.32
2018-03-30T03:55:36.214Z,92.37
2018-03-30T03:56:36.188Z,93.27
2018-03-30T03:57:36.148Z,91.13
2018-03-30T03:58:36.130Z,91.61
2018-03-30T03:59:36.093Z,91.99
2018-03-30T04:00:36.060Z,91.80
2018-03-30T04:01:36.049Z,91.89
2018-03-30T04:02:35.995Z,91.61
2018-03-30T04:03:35.963Z,91.99
2018-03-30T04:04:35.940Z,91.61
2018-03-30T04:05:35.909Z,91.61
2018-03-30T04:06:35.877Z,91.80
2018-03-30T04:07:35.849Z,90.66
2018-03-30T04:08:35.824Z,91.33
2018-03-30T04:09:35.790Z,91.61
2018-03-30T04:10:35.756Z,90.56
2018-03-30T04:11:35.736Z,91.99
2018-03-30T04:12:35.693Z,92.27
2018-03-30T04:13:35.664Z,92.18
2018-03-30T04:14:35.672Z,91.04
2018-03-30T04:15:35.599Z,91.52
2018-03-30T04:16:35.567Z,92.27
2018-03-30T04:17:35.542Z,91.52
2018-03-30T04:18:35.515Z,91.99
2018-03-30T04:19:35.481Z,91.71
2018-03-30T04:20:35.453Z,92.27
2018-03-30T04:21:35.420Z,91.61
2018-03-30T04:22:35.387Z,91.80
2018-03-30T04:23:35.364Z,91.99
2018-03-30T04:24:35.332Z,90.66
2018-03-30T04:25:35.300Z,91.23
2018-03-30T04:26:35.264Z,91.23
2018-03-30T04:27:35.239Z,91.52
2018-03-30T04:28:35.208Z,91.80
2018-03-30T04:29:35.174Z,91.04
2018-03-30T04:30:35.146Z,91.80
2018-03-30T04:31:35.156Z,91.42
2018-03-30T04:32:35.094Z,90.09
2018-03-30T04:33:35.055Z,90.66
2018-03-30T04:34:35.030Z,91.61
2018-03-30T04:35:34.996Z,90.37
2018-03-30T04:36:34.988Z,91.52
2018-03-30T04:37:34.938Z,92.56
2018-03-30T04:38:34.906Z,91.52
2018-03-30T04:39:34.869Z,90.75
2018-03-30T04:40:34.911Z,91.80
2018-03-30T04:41:34.811Z,90.85
2018-03-30T04:42:34.775Z,92.75
2018-03-30T04:43:34.766Z,90.94
2018-03-30T04:44:34.727Z,92.66
2018-03-30T04:45:34.690Z,91.80
2018-03-30T04:46:34.661Z,91.61
2018-03-30T04:47:34.673Z,91.33
2018-03-30T04:48:34.598Z,90.28
2018-03-30T04:49:34.570Z,91.61
2018-03-30T04:50:34.548Z,91.37
2018-03-30T04:51:34.507Z,90.37
2018-03-30T04:52:34.484Z,92.32
2018-03-30T04:53:34.449Z,91.37
2018-03-30T04:54:34.412Z,90.85
2018-03-30T04:55:34.382Z,91.80
2018-03-30T04:56:34.354Z,91.23
2018-03-30T04:57:34.324Z,90.42
2018-03-30T04:58:34.292Z,91.47
2018-03-30T04:59:34.267Z,91.56
2018-03-30T05:00:34.232Z,91.28
2018-03-30T05:01:34.204Z,91.66
2018-03-30T05:02:34.178Z,91.85
2018-03-30T05:03:34.142Z,91.75
2018-03-30T05:04:34.117Z,91.85
2018-03-30T05:05:34.080Z,91.18
2018-03-30T05:06:34.049Z,91.28
2018-03-30T05:07:34.022Z,91.66
2018-03-30T05:08:33.992Z,90.80
2018-03-30T05:09:33.957Z,90.52
2018-03-30T05:10:34.012Z,91.85
2018-03-30T05:11:33.896Z,91.75
2018-03-30T05:12:33.867Z,90.89
2018-03-30T05:13:33.843Z,91.47
2018-03-30T05:14:33.810Z,91.18
2018-03-30T05:15:33.774Z,90.89
2018-03-30T05:16:33.799Z,91.66
2018-03-30T05:17:33.726Z,91.47
2018-03-30T05:18:33.690Z,90.61
2018-03-30T05:19:33.660Z,90.70
2018-03-30T05:20:33.629Z,90.80
2018-03-30T05:21:33.591Z,90.42
2018-03-30T05:22:33.563Z,91.66
2018-03-30T05:23:33.532Z,90.61
2018-03-30T05:24:33.503Z,90.52
2018-03-30T05:25:33.475Z,91.66
2018-03-30T05:26:33.515Z,91.56
2018-03-30T05:27:33.420Z,91.47
2018-03-30T05:28:33.382Z,90.80
2018-03-30T05:29:33.369Z,91.66
2018-03-30T05:30:33.329Z,91.85
2018-03-30T05:31:33.298Z,91.08
2018-03-30T05:32:33.265Z,91.47
2018-03-30T05:33:33.305Z,91.75
2018-03-30T05:34:33.205Z,91.08
2018-03-30T05:35:33.171Z,91.47
2018-03-30T05:36:33.140Z,91.94
2018-03-30T05:37:33.112Z,91.66
2018-03-30T05:38:33.074Z,90.99
2018-03-30T05:39:33.055Z,91.08
2018-03-30T05:40:33.016Z,91.47
2018-03-30T05:41:32.993Z,90.80
2018-03-30T05:42:32.963Z,91.56
2018-03-30T05:43:32.930Z,91.85
2018-03-30T05:44:32.900Z,92.61
2018-03-30T05:45:32.870Z,92.03
2018-03-30T05:46:32.841Z,90.70
2018-03-30T05:47:32.808Z,92.22
2018-03-30T05:48:32.779Z,91.56
2018-03-30T05:49:32.750Z,92.41
2018-03-30T05:50:32.709Z,90.52
2018-03-30T05:51:32.687Z,91.66
2018-03-30T05:52:32.651Z,91.42
2018-03-30T05:53:32.624Z,90.89
2018-03-30T05:54:32.594Z,90.70
2018-03-30T05:55:32.565Z,90.80
2018-03-30T05:56:32.531Z,91.03
2018-03-30T05:57:32.504Z,89.94
2018-03-30T05:58:32.476Z,90.80
2018-03-30T05:59:32.456Z,90.14
2018-03-30T06:00:32.425Z,90.23
2018-03-30T06:01:32.389Z,90.94
2018-03-30T06:02:32.362Z,91.66
2018-03-30T06:03:32.326Z,90.94
2018-03-30T06:04:32.294Z,90.61
2018-03-30T06:05:32.290Z,90.04
2018-03-30T06:06:32.233Z,90.66
2018-03-30T06:07:32.240Z,90.23
2018-03-30T06:08:32.173Z,91.08
2018-03-30T06:09:32.145Z,90.94
2018-03-30T06:10:32.148Z,90.94
2018-03-30T06:11:32.081Z,90.84
2018-03-30T06:12:32.053Z,90.66
2018-03-30T06:13:32.025Z,92.22
2018-03-30T06:14:32.000Z,91.42
2018-03-30T06:15:31.971Z,90.56
2018-03-30T06:16:31.937Z,91.80
2018-03-30T06:17:31.904Z,91.13
2018-03-30T06:18:31.879Z,90.66
2018-03-30T06:19:31.847Z,90.75
2018-03-30T06:20:31.815Z,91.80
2018-03-30T06:21:31.785Z,90.84
2018-03-30T06:22:31.750Z,90.84
2018-03-30T06:23:31.724Z,90.84
2018-03-30T06:24:31.693Z,90.75
2018-03-30T06:25:31.669Z,91.61
2018-03-30T06:26:31.644Z,91.13
2018-03-30T06:27:31.607Z,91.13
2018-03-30T06:28:31.580Z,91.61
2018-03-30T06:29:31.543Z,91.89
2018-03-30T06:30:31.512Z,90.84
2018-03-30T06:31:31.484Z,91.13
2018-03-30T06:32:31.449Z,91.89
2018-03-30T06:33:31.426Z,91.51
2018-03-30T06:34:31.397Z,90.84
2018-03-30T06:35:31.362Z,91.89
2018-03-30T06:36:31.336Z,91.70
2018-03-30T06:37:31.305Z,91.89
2018-03-30T06:38:31.281Z,91.51
2018-03-30T06:39:31.246Z,90.08
2018-03-30T06:40:31.219Z,91.32
2018-03-30T06:41:31.189Z,91.70
2018-03-30T06:42:31.157Z,90.75
2018-03-30T06:43:31.202Z,91.61
2018-03-30T06:44:31.117Z,91.99
2018-03-30T06:45:31.072Z,91.84
2018-03-30T06:46:31.094Z,90.56
2018-03-30T06:47:31.009Z,91.89
2018-03-30T06:48:31.015Z,91.70
2018-03-30T06:49:30.943Z,91.70
2018-03-30T06:50:30.917Z,91.61
2018-03-30T06:51:30.885Z,91.70
2018-03-30T06:52:30.909Z,91.70
2018-03-30T06:53:30.832Z,90.84
2018-03-30T06:54:30.808Z,90.75
2018-03-30T06:55:30.772Z,92.08
2018-03-30T06:56:30.744Z,91.80
2018-03-30T06:57:30.715Z,91.13
2018-03-30T06:58:30.767Z,91.89
2018-03-30T06:59:30.652Z,91.61
2018-03-30T07:00:30.625Z,92.36
2018-03-30T07:01:30.587Z,91.99
2018-03-30T07:02:30.585Z,91.70
2018-03-30T07:03:30.532Z,91.22
2018-03-30T07:04:30.501Z,91.46
2018-03-30T07:05:30.496Z,91.70
2018-03-30T07:06:30.439Z,92.03
2018-03-30T07:07:30.414Z,91.75
2018-03-30T07:08:30.436Z,91.17
2018-03-30T07:09:30.353Z,91.89
2018-03-30T07:10:30.332Z,92.13
2018-03-30T07:11:30.300Z,91.56
2018-03-30T07:12:30.269Z,91.56
2018-03-30T07:13:30.239Z,91.94
2018-03-30T07:14:30.209Z,92.51
2018-03-30T07:15:30.207Z,91.75
2018-03-30T07:16:30.151Z,92.41
2018-03-30T07:17:30.116Z,92.89
2018-03-30T07:18:30.093Z,92.51
2018-03-30T07:19:30.059Z,92.41
2018-03-30T07:20:30.029Z,91.75
2018-03-30T07:21:30.000Z,92.03
2018-03-30T07:22:29.977Z,91.75
2018-03-30T07:23:29.940Z,92.70
2018-03-30T07:24:29.909Z,92.55
2018-03-30T07:25:29.893Z,91.51
2018-03-30T07:26:29.855Z,93.22
2018-03-30T07:27:29.828Z,92.41
2018-03-30T07:28:29.798Z,92.46
2018-03-30T07:29:29.760Z,92.36
2018-03-30T07:30:29.736Z,93.22
2018-03-30T07:31:29.706Z,92.36
2018-03-30T07:32:29.681Z,93.03
2018-03-30T07:33:29.659Z,92.74
2018-03-30T07:34:29.621Z,92.94
2018-03-30T07:35:29.596Z,92.55
2018-03-30T07:36:29.562Z,92.36
2018-03-30T07:37:29.606Z,93.03
2018-03-30T07:38:29.504Z,93.13
2018-03-30T07:39:29.479Z,93.22
2018-03-30T07:40:29.451Z,92.46
2018-03-30T07:41:29.417Z,93.03
2018-03-30T07:42:29.384Z,92.74
2018-03-30T07:43:29.360Z,92.65
2018-03-30T07:44:29.366Z,91.99
2018-03-30T07:45:29.298Z,91.84
2018-03-30T07:46:29.266Z,92.98
2018-03-30T07:47:29.242Z,91.79
2018-03-30T07:48:29.216Z,92.94
2018-03-30T07:49:29.185Z,92.79
2018-03-30T07:50:29.211Z,93.08
2018-03-30T07:51:29.133Z,91.65
2018-03-30T07:52:29.105Z,93.37
2018-03-30T07:53:29.074Z,92.79
2018-03-30T07:54:29.047Z,92.60
2018-03-30T07:55:29.015Z,93.08
2018-03-30T07:56:28.990Z,93.08
2018-03-30T07:57:28.956Z,92.89
2018-03-30T07:58:28.927Z,93.08
2018-03-30T07:59:28.895Z,92.22
2018-03-30T08:00:28.867Z,92.79
2018-03-30T08:01:28.850Z,93.08
2018-03-30T08:02:28.813Z,93.17
2018-03-30T08:03:28.785Z,92.69
2018-03-30T08:04:28.753Z,92.69
2018-03-30T08:05:28.744Z,92.89
2018-03-30T08:06:28.702Z,92.41
2018-03-30T08:07:28.755Z,92.60
2018-03-30T08:08:28.643Z,92.65
2018-03-30T08:09:28.618Z,92.27
2018-03-30T08:10:28.654Z,91.98
2018-03-30T08:11:28.564Z,92.08
2018-03-30T08:12:28.526Z,91.60
2018-03-30T08:13:28.495Z,91.98
2018-03-30T08:14:28.473Z,91.60
2018-03-30T08:15:28.437Z,91.98
2018-03-30T08:16:28.414Z,91.60
2018-03-30T08:17:28.444Z,91.22
2018-03-30T08:18:28.355Z,91.13
2018-03-30T08:19:28.337Z,92.27
2018-03-30T08:20:28.296Z,91.69
2018-03-30T08:21:28.271Z,91.31
2018-03-30T08:22:28.299Z,90.55
2018-03-30T08:23:28.216Z,90.12
2018-03-30T08:24:28.185Z,90.79
2018-03-30T08:25:28.169Z,90.31
2018-03-30T08:26:28.136Z,89.83
2018-03-30T08:27:28.117Z,89.74
2018-03-30T08:28:28.079Z,88.78
2018-03-30T08:29:28.043Z,87.93
2018-03-30T08:30:28.012Z,88.21
2018-03-30T08:31:28.008Z,88.12
2018-03-30T08:32:27.959Z,86.49
2018-03-30T08:33:27.928Z,85.83
2018-03-30T08:34:27.898Z,85.06
2018-03-30T08:35:27.871Z,84.88
2018-03-30T08:36:27.843Z,85.73
2018-03-30T08:37:27.821Z,84.40
2018-03-30T08:38:27.794Z,85.35
2018-03-30T08:39:27.888Z,85.35
2018-03-30T08:40:27.763Z,85.73
2018-03-30T08:41:27.755Z,84.63
2018-03-30T08:42:27.683Z,83.67
2018-03-30T08:43:27.671Z,83.58
2018-03-30T08:44:27.708Z,84.53
2018-03-30T08:45:27.603Z,84.25
2018-03-30T08:46:27.565Z,84.44
2018-03-30T08:47:27.536Z,83.39
2018-03-30T08:48:27.511Z,82.43
2018-03-30T08:49:27.478Z,82.48
2018-03-30T08:50:27.539Z,81.38
2018-03-30T08:51:27.431Z,80.09
2018-03-30T08:52:27.483Z,79.23
2018-03-30T08:53:27.450Z,79.90
2018-03-30T08:54:27.345Z,79.19
2018-03-30T08:55:27.430Z,77.76
2018-03-30T08:56:27.291Z,77.42
2018-03-30T08:57:27.385Z,79.14
2018-03-30T08:58:27.296Z,79.52
2018-03-30T08:59:27.208Z,76.14
2018-03-30T09:00:27.242Z,76.62
2018-03-30T09:01:27.162Z,75.66
2018-03-30T09:02:27.124Z,75.57
2018-03-30T09:03:27.137Z,75.95
2018-03-30T09:04:27.126Z,75.66
2018-03-30T09:05:27.040Z,75.57
2018-03-30T09:06:27.034Z,75.57
2018-03-30T09:07:27.236Z,75.76
2018-03-30T09:08:26.955Z,77.03
2018-03-30T09:09:26.935Z,76.56
2018-03-30T09:10:26.902Z,76.27
2018-03-30T09:11:26.884Z,77.13
2018-03-30T09:12:26.851Z,75.51
2018-03-30T09:13:26.821Z,75.03
2018-03-30T09:14:26.799Z,74.17
2018-03-30T09:15:26.804Z,71.12
2018-03-30T09:16:26.740Z,71.31
2018-03-30T09:17:26.710Z,70.26
2018-03-30T09:18:26.736Z,71.02
2018-03-30T09:19:26.655Z,70.36
2018-03-30T09:20:26.705Z,70.64
2018-03-30T09:21:26.676Z,69.78
2018-03-30T09:22:26.617Z,69.87
2018-03-30T09:23:26.540Z,70.01
2018-03-30T09:24:26.564Z,68.76
2018-03-30T09:25:26.501Z,68.76
2018-03-30T09:26:26.459Z,68.10
2018-03-30T09:27:26.444Z,68.67
2018-03-30T09:28:26.418Z,68.38
2018-03-30T09:29:26.380Z,67.24
2018-03-30T09:30:26.412Z,66.00
2018-03-30T09:31:26.334Z,66.28
2018-03-30T09:32:26.319Z,65.93
2018-03-30T09:33:26.347Z,66.13
2018-03-30T09:34:26.241Z,64.50
2018-03-30T09:35:26.208Z,64.22
2018-03-30T09:36:26.195Z,62.59
2018-03-30T09:37:26.160Z,63.35
2018-03-30T09:38:26.136Z,63.54
2018-03-30T09:39:26.145Z,62.49
2018-03-30T09:40:26.140Z,62.78
2018-03-30T09:41:26.049Z,62.49
2018-03-30T09:42:26.021Z,62.21
2018-03-30T09:43:26.072Z,62.49
2018-03-30T09:44:26.101Z,61.92
2018-03-30T09:45:25.939Z,63.73
2018-03-30T09:46:26.016Z,61.92
2018-03-30T09:47:25.888Z,60.96
2018-03-30T09:48:25.905Z,61.16
2018-03-30T09:49:25.842Z,62.01
2018-03-30T09:50:25.813Z,62.24
2018-03-30T09:51:25.794Z,61.19
2018-03-30T09:52:25.762Z,60.90
2018-03-30T09:53:25.729Z,61.19
2018-03-30T09:54:25.710Z,60.33
2018-03-30T09:55:25.677Z,60.52
2018-03-30T09:56:25.653Z,60.61
2018-03-30T09:57:25.675Z,60.80
2018-03-30T09:58:25.594Z,60.42
2018-03-30T09:59:25.593Z,60.04
2018-03-30T10:00:25.537Z,60.71
2018-03-30T10:01:25.526Z,60.16
2018-03-30T10:02:25.500Z,59.69
2018-03-30T10:03:25.468Z,59.49
2018-03-30T10:04:25.433Z,59.08
2018-03-30T10:05:25.419Z,59.78
2018-03-30T10:06:25.386Z,59.97
2018-03-30T10:07:25.435Z,58.92
2018-03-30T10:08:25.444Z,58.63
2018-03-30T10:09:25.363Z,58.15
2018-03-30T10:10:25.282Z,58.15
2018-03-30T10:11:25.255Z,57.68
2018-03-30T10:12:25.232Z,57.29
2018-03-30T10:13:25.197Z,57.29
2018-03-30T10:14:25.192Z,57.58
2018-03-30T10:15:25.158Z,57.48
2018-03-30T10:16:25.123Z,58.06
2018-03-30T10:17:25.093Z,58.06
2018-03-30T10:18:25.068Z,57.87
2018-03-30T10:19:25.050Z,58.44
2018-03-30T10:20:25.029Z,57.87
2018-03-30T10:21:25.119Z,57.42
2018-03-30T10:22:24.973Z,57.29
2018-03-30T10:23:24.949Z,57.20
2018-03-30T10:24:24.943Z,57.65
2018-03-30T10:25:24.914Z,57.01
2018-03-30T10:26:24.956Z,58.63
2018-03-30T10:27:24.896Z,57.58
2018-03-30T10:28:24.814Z,57.20
2018-03-30T10:29:24.807Z,57.48
2018-03-30T10:30:24.801Z,57.97
2018-03-30T10:31:24.748Z,57.97
2018-03-30T10:32:24.711Z,56.91
2018-03-30T10:33:24.688Z,57.26
2018-03-30T10:34:24.664Z,58.25
2018-03-30T10:35:24.644Z,58.73
2018-03-30T10:36:24.658Z,57.32
2018-03-30T10:37:24.596Z,56.56
2018-03-30T10:38:24.562Z,56.37
2018-03-30T10:39:24.534Z,55.53
2018-03-30T10:40:24.511Z,56.97
2018-03-30T10:41:24.484Z,55.24
2018-03-30T10:42:24.454Z,55.53
2018-03-30T10:43:24.440Z,54.32
2018-03-30T10:44:24.445Z,54.86
2018-03-30T10:45:24.378Z,54.28
2018-03-30T10:46:24.364Z,53.81
2018-03-30T10:47:24.343Z,54.57
2018-03-30T10:48:24.313Z,54.77
2018-03-30T10:49:24.281Z,54.48
2018-03-30T10:50:24.262Z,54.28
2018-03-30T10:51:24.228Z,53.71
2018-03-30T10:52:24.214Z,54.60
2018-03-30T10:53:24.178Z,54.89
2018-03-30T10:54:24.154Z,54.03
2018-03-30T10:55:24.138Z,54.70
2018-03-30T10:56:24.104Z,54.99
2018-03-30T10:57:24.164Z,54.89
2018-03-30T10:58:24.061Z,53.55
2018-03-30T10:59:24.128Z,54.77
2018-03-30T11:00:24.010Z,54.28
2018-03-30T11:01:23.989Z,54.38
2018-03-30T11:02:23.957Z,54.48
2018-03-30T11:03:23.965Z,54.67
2018-03-30T11:04:23.921Z,54.45
2018-03-30T11:05:23.941Z,54.55
2018-03-30T11:06:23.865Z,53.81
2018-03-30T11:07:23.836Z,53.42
2018-03-30T11:08:23.817Z,54.67
2018-03-30T11:09:23.784Z,53.91
2018-03-30T11:10:23.764Z,55.34
2018-03-30T11:11:23.758Z,55.05
2018-03-30T11:12:23.714Z,54.99
2018-03-30T11:13:23.692Z,54.89
2018-03-30T11:14:23.700Z,54.22
2018-03-30T11:15:23.758Z,53.74
2018-03-30T11:16:23.608Z,53.74
2018-03-30T11:17:23.592Z,53.64
2018-03-30T11:18:23.573Z,52.97
2018-03-30T11:19:23.553Z,52.18
2018-03-30T11:20:23.520Z,52.85
2018-03-30T11:21:23.498Z,53.71
2018-03-30T11:22:23.482Z,53.36
2018-03-30T11:23:23.445Z,53.16
2018-03-30T11:24:23.428Z,52.78
2018-03-30T11:25:23.389Z,52.69
2018-03-30T11:26:23.369Z,52.62
2018-03-30T11:27:23.351Z,52.81
2018-03-30T11:28:23.325Z,52.23
2018-03-30T11:29:23.305Z,52.71
2018-03-30T11:30:23.273Z,52.62
2018-03-30T11:31:23.265Z,52.78
2018-03-30T11:32:23.227Z,52.33
2018-03-30T11:33:23.205Z,51.75
2018-03-30T11:34:23.180Z,51.08
2018-03-30T11:35:23.157Z,50.70
2018-03-30T11:36:23.129Z,50.89
2018-03-30T11:37:23.214Z,51.46
2018-03-30T11:38:47.736Z,50.70
2018-03-30T11:40:46.296Z,50.43
2018-03-30T11:41:45.341Z,49.93
2018-03-30T11:44:01.830Z,47.63
2018-03-30T11:45:02.093Z,46.21
2018-03-30T11:47:08.432Z,44.45
2018-03-30T11:50:19.760Z,40.45
2018-03-30T11:51:18.734Z,40.89
2018-03-30T11:52:17.849Z,41.08
2018-03-30T11:53:17.596Z,41.56
2018-03-30T11:54:17.542Z,41.55
2018-03-30T11:55:16.904Z,41.56
2018-03-30T11:56:16.849Z,41.66
2018-03-30T11:57:16.704Z,42.50
2018-03-30T11:58:16.698Z,44.34
2018-03-30T11:59:16.654Z,43.13
2018-03-30T12:00:16.639Z,41.78
2018-03-30T12:03:13.139Z,43.01
2018-03-30T12:04:13.158Z,43.04
2018-03-30T12:06:34.605Z,42.70
2018-03-30T12:10:08.927Z,43.68
2018-03-30T12:10:34.264Z,42.97
2018-03-30T12:13:01.352Z,42.05
2018-03-30T12:14:01.325Z,41.76
2018-03-30T12:16:09.228Z,40.89
2018-03-30T12:17:11.303Z,41.49
2018-03-30T12:20:46.574Z,40.55
2018-03-30T12:21:45.020Z,40.43
2018-03-30T12:23:43.336Z,40.53
2018-03-30T12:24:43.110Z,40.81
2018-03-30T12:25:42.877Z,41.47
2018-03-30T12:26:46.057Z,42.00
2018-03-30T12:27:43.191Z,42.70
2018-03-30T12:28:43.577Z,42.60
2018-03-30T12:29:42.016Z,42.43
2018-03-30T12:30:41.968Z,42.12
2018-03-30T12:31:41.950Z,42.05
2018-03-30T12:32:41.932Z,41.86
2018-03-30T12:33:41.905Z,42.43
2018-03-30T12:34:41.885Z,40.89
2018-03-30T12:35:41.865Z,41.38
2018-03-30T12:36:41.848Z,40.89
2018-03-30T12:37:41.881Z,41.16
2018-03-30T12:38:41.810Z,41.91
2018-03-30T12:39:41.784Z,42.97
2018-03-30T12:40:41.771Z,43.84
2018-03-30T12:41:41.750Z,43.16
2018-03-30T12:42:41.770Z,42.58
2018-03-30T12:43:41.732Z,42.77
2018-03-30T12:44:41.696Z,41.74
2018-03-30T12:45:41.669Z,41.74
2018-03-30T12:46:41.652Z,41.43
2018-03-30T12:47:41.637Z,42.00
2018-03-30T12:48:41.608Z,42.87
2018-03-30T12:49:41.665Z,41.35
2018-03-30T12:50:41.573Z,42.00
2018-03-30T12:51:41.559Z,41.79
2018-03-30T12:52:41.541Z,42.37
2018-03-30T12:53:41.533Z,42.73
2018-03-30T12:54:41.493Z,43.88
2018-03-30T12:55:41.547Z,43.40
2018-03-30T12:56:41.470Z,43.14
2018-03-30T12:57:41.438Z,43.62
2018-03-30T12:58:41.426Z,42.94
2018-03-30T12:59:41.403Z,43.91
2018-03-30T13:00:41.529Z,42.76
2018-03-30T13:01:41.401Z,42.76
2018-03-30T13:02:41.336Z,42.87
2018-03-30T13:03:41.330Z,42.85
2018-03-30T13:04:41.296Z,43.79
2018-03-30T13:05:41.295Z,43.50
2018-03-30T13:06:41.259Z,43.33
2018-03-30T13:07:41.241Z,43.70
2018-03-30T13:08:41.321Z,43.50
2018-03-30T13:09:41.200Z,43.52